createdAt,value
2017-10-17T00:00:22.236Z,0
2017-10-17T00:01:22.998Z,0
2017-10-17T00:02:23.644Z,0
2017-10-17T00:03:24.253Z,0
2017-10-17T00:04:24.866Z,0
2017-10-17T00:05:25.483Z,0
2017-10-17T00:06:26.243Z,0
2017-10-17T00:07:26.856Z,0
2017-10-17T00:08:27.468Z,0
2017-10-17T00:09:28.082Z,0
2017-10-17T00:10:28.696Z,0
2017-10-17T00:11:29.486Z,0
2017-10-17T00:12:30.103Z,0
2017-10-17T00:13:30.717Z,0
2017-10-17T00:14:31.363Z,0
2017-10-17T00:15:31.979Z,0
2017-10-17T00:16:32.748Z,0
2017-10-17T00:17:33.358Z,0
2017-10-17T00:18:33.972Z,0
2017-10-17T00:19:34.589Z,0
2017-10-17T00:20:35.205Z,0
2017-10-17T00:21:35.970Z,0
2017-10-17T00:22:36.579Z,0
2017-10-17T00:23:37.192Z,0
2017-10-17T00:24:37.804Z,0
2017-10-17T00:25:38.416Z,0
2017-10-17T00:26:39.178Z,0
2017-10-17T00:27:39.799Z,0
2017-10-17T00:28:40.408Z,0
2017-10-17T00:29:41.019Z,0
2017-10-17T00:30:41.660Z,0
2017-10-17T00:31:42.423Z,0
2017-10-17T00:32:43.035Z,0
2017-10-17T00:33:43.649Z,0
2017-10-17T00:34:44.266Z,0
2017-10-17T00:35:44.876Z,0
2017-10-17T00:36:45.667Z,0
2017-10-17T00:37:46.282Z,0
2017-10-17T00:38:46.925Z,0
2017-10-17T00:39:47.537Z,0
2017-10-17T00:40:48.151Z,0
2017-10-17T00:41:48.920Z,0
2017-10-17T00:42:49.535Z,0
2017-10-17T00:43:50.145Z,0
2017-10-17T00:44:50.765Z,0
2017-10-17T00:45:51.374Z,0
2017-10-17T00:46:52.168Z,0
2017-10-17T00:47:52.781Z,0
2017-10-17T00:48:53.394Z,0
2017-10-17T00:49:54.007Z,0
2017-10-17T00:50:54.621Z,0
2017-10-17T00:51:55.385Z,0
2017-10-17T00:52:55.996Z,0
2017-10-17T00:53:56.645Z,0
2017-10-17T00:54:57.255Z,0
2017-10-17T00:55:57.894Z,0
2017-10-17T00:56:58.663Z,0
2017-10-17T00:57:59.307Z,0
2017-10-17T00:58:59.919Z,0
2017-10-17T01:00:00.536Z,0
2017-10-17T01:01:01.180Z,0
2017-10-17T01:02:01.941Z,0
2017-10-17T01:03:02.560Z,0
2017-10-17T01:04:03.169Z,0
2017-10-17T01:05:03.781Z,0
2017-10-17T01:06:04.394Z,0
2017-10-17T01:07:05.166Z,0
2017-10-17T01:08:05.806Z,0
2017-10-17T01:09:06.418Z,0
2017-10-17T01:10:07.062Z,0
2017-10-17T01:11:07.674Z,0
2017-10-17T01:12:08.438Z,0
2017-10-17T01:13:09.053Z,0
2017-10-17T01:14:09.661Z,0
2017-10-17T01:15:10.274Z,0
2017-10-17T01:16:10.914Z,0
2017-10-17T01:17:11.676Z,0
2017-10-17T01:18:12.294Z,0
2017-10-17T01:19:12.904Z,0
2017-10-17T01:20:13.516Z,0
2017-10-17T01:21:14.129Z,0
2017-10-17T01:22:14.945Z,0
2017-10-17T01:23:15.563Z,0
2017-10-17T01:24:16.172Z,0
2017-10-17T01:25:16.789Z,0
2017-10-17T01:26:17.400Z,0
2017-10-17T01:27:18.165Z,0
2017-10-17T01:28:18.776Z,0
2017-10-17T01:29:19.388Z,0
2017-10-17T01:30:20.003Z,0
2017-10-17T01:31:20.616Z,0
2017-10-17T01:32:21.384Z,0
2017-10-17T01:33:21.993Z,0
2017-10-17T01:34:22.607Z,0
2017-10-17T01:35:23.226Z,0
2017-10-17T01:36:23.834Z,0
2017-10-17T01:37:24.596Z,0
2017-10-17T01:38:25.210Z,0
2017-10-17T01:39:25.829Z,0
2017-10-17T01:40:26.440Z,0
2017-10-17T01:41:27.053Z,0
2017-10-17T01:42:27.817Z,0
2017-10-17T01:43:28.434Z,0
2017-10-17T01:44:29.041Z,0
2017-10-17T01:45:29.654Z,0
2017-10-17T01:46:30.265Z,0
2017-10-17T01:47:31.030Z,0
2017-10-17T01:48:31.645Z,0
2017-10-17T01:49:32.257Z,0
2017-10-17T01:50:32.870Z,0
2017-10-17T01:51:33.482Z,0
2017-10-17T01:52:34.244Z,0
2017-10-17T01:53:34.855Z,0
2017-10-17T01:54:35.467Z,0
2017-10-17T01:55:36.078Z,0
2017-10-17T01:56:36.691Z,0
2017-10-17T01:57:37.454Z,0
2017-10-17T01:58:38.066Z,0
2017-10-17T01:59:38.678Z,0
2017-10-17T02:00:39.292Z,0
2017-10-17T02:01:39.905Z,0
2017-10-17T02:02:40.667Z,0
2017-10-17T02:03:41.311Z,0
2017-10-17T02:04:41.926Z,0
2017-10-17T02:05:42.536Z,0
2017-10-17T02:06:43.148Z,0
2017-10-17T02:07:43.916Z,0
2017-10-17T02:08:44.534Z,0
2017-10-17T02:09:45.140Z,0
2017-10-17T02:10:45.751Z,0
2017-10-17T02:11:46.365Z,0
2017-10-17T02:12:47.126Z,0
2017-10-17T02:13:47.740Z,0
2017-10-17T02:14:48.355Z,0
2017-10-17T02:15:49.005Z,0
2017-10-17T02:16:49.615Z,0
2017-10-17T02:17:50.378Z,0
2017-10-17T02:18:50.991Z,0
2017-10-17T02:19:51.602Z,0
2017-10-17T02:20:52.214Z,0
2017-10-17T02:21:52.828Z,0
2017-10-17T02:22:53.592Z,0
2017-10-17T02:23:54.204Z,0
2017-10-17T02:24:54.814Z,0
2017-10-17T02:25:55.430Z,0
2017-10-17T02:26:56.046Z,0
2017-10-17T02:27:56.805Z,0
2017-10-17T02:28:57.416Z,0
2017-10-17T02:29:58.033Z,0
2017-10-17T02:30:58.643Z,0
2017-10-17T02:31:59.255Z,0
2017-10-17T02:33:00.018Z,0
2017-10-17T02:34:00.634Z,0
2017-10-17T02:35:01.245Z,0
2017-10-17T02:36:01.855Z,0
2017-10-17T02:37:02.467Z,0
2017-10-17T02:38:03.259Z,0
2017-10-17T02:39:03.873Z,0
2017-10-17T02:40:04.486Z,0
2017-10-17T02:41:05.097Z,0
2017-10-17T02:42:05.716Z,0
2017-10-17T02:43:06.576Z,0
2017-10-17T02:44:07.193Z,0
2017-10-17T02:45:07.803Z,0
2017-10-17T02:46:08.419Z,0
2017-10-17T02:47:09.030Z,0
2017-10-17T02:48:09.793Z,0
2017-10-17T02:49:10.405Z,0
2017-10-17T02:50:11.016Z,0
2017-10-17T02:51:11.628Z,0
2017-10-17T02:52:12.239Z,0
2017-10-17T02:53:13.038Z,0
2017-10-17T02:54:13.654Z,0
2017-10-17T02:55:14.266Z,0
2017-10-17T02:56:14.872Z,0
2017-10-17T02:57:15.485Z,0
2017-10-17T02:58:16.278Z,0
2017-10-17T02:59:16.891Z,0
2017-10-17T03:00:17.513Z,0
2017-10-17T03:01:18.155Z,0
2017-10-17T03:02:18.799Z,0
2017-10-17T03:03:19.561Z,0
2017-10-17T03:04:20.172Z,0
2017-10-17T03:05:20.785Z,0
2017-10-17T03:06:21.404Z,0
2017-10-17T03:07:22.027Z,0
2017-10-17T03:08:22.633Z,0
2017-10-17T03:09:23.273Z,0
2017-10-17T03:10:23.885Z,0
2017-10-17T03:11:24.498Z,0
2017-10-17T03:12:25.110Z,0
2017-10-17T03:13:25.774Z,0
2017-10-17T03:14:26.393Z,0
2017-10-17T03:15:27.007Z,0
2017-10-17T03:16:27.615Z,0
2017-10-17T03:17:28.227Z,0
2017-10-17T03:18:28.846Z,0
2017-10-17T03:19:29.456Z,0
2017-10-17T03:20:30.072Z,0
2017-10-17T03:21:30.714Z,0
2017-10-17T03:22:31.332Z,0
2017-10-17T03:23:31.980Z,0
2017-10-17T03:24:32.591Z,0
2017-10-17T03:25:33.203Z,0
2017-10-17T03:26:33.816Z,0
2017-10-17T03:27:34.427Z,0
2017-10-17T03:28:35.038Z,0
2017-10-17T03:29:35.651Z,0
2017-10-17T03:30:36.271Z,0
2017-10-17T03:31:36.885Z,0
2017-10-17T03:32:37.528Z,0
2017-10-17T03:33:38.194Z,0
2017-10-17T03:34:38.807Z,0
2017-10-17T03:35:39.447Z,0
2017-10-17T03:36:40.061Z,0
2017-10-17T03:37:40.674Z,0
2017-10-17T03:38:41.336Z,0
2017-10-17T03:39:41.950Z,0
2017-10-17T03:40:42.568Z,0
2017-10-17T03:41:43.181Z,0
2017-10-17T03:42:43.792Z,0
2017-10-17T03:43:44.455Z,0
2017-10-17T03:44:45.073Z,0
2017-10-17T03:45:45.682Z,0
2017-10-17T03:46:46.300Z,0
2017-10-17T03:47:46.909Z,0
2017-10-17T03:48:47.534Z,0
2017-10-17T03:49:48.169Z,0
2017-10-17T03:50:48.778Z,0
2017-10-17T03:51:49.390Z,0
2017-10-17T03:52:50.005Z,0
2017-10-17T03:53:50.666Z,0
2017-10-17T03:54:51.278Z,0
2017-10-17T03:55:51.895Z,0
2017-10-17T03:56:52.503Z,0
2017-10-17T03:57:53.115Z,0
2017-10-17T03:58:53.728Z,0
2017-10-17T03:59:54.370Z,0
2017-10-17T04:00:54.985Z,0
2017-10-17T04:01:55.597Z,0
2017-10-17T04:02:56.210Z,0
2017-10-17T04:03:56.871Z,0
2017-10-17T04:04:57.489Z,0
2017-10-17T04:05:58.103Z,0
2017-10-17T04:06:58.712Z,0
2017-10-17T04:07:59.331Z,0
2017-10-17T04:08:59.996Z,0
2017-10-17T04:10:00.639Z,0
2017-10-17T04:11:01.248Z,0
2017-10-17T04:12:01.861Z,0
2017-10-17T04:13:02.472Z,0
2017-10-17T04:14:03.133Z,0
2017-10-17T04:15:03.746Z,0
2017-10-17T04:16:04.360Z,0
2017-10-17T04:17:04.973Z,0
2017-10-17T04:18:05.589Z,0
2017-10-17T04:19:06.197Z,0
2017-10-17T04:20:06.812Z,0
2017-10-17T04:21:07.421Z,0
2017-10-17T04:22:08.038Z,0
2017-10-17T04:23:08.682Z,0
2017-10-17T04:24:09.290Z,0
2017-10-17T04:25:09.903Z,0
2017-10-17T04:26:10.514Z,0
2017-10-17T04:27:11.126Z,0
2017-10-17T04:28:11.744Z,0
2017-10-17T04:29:12.404Z,0
2017-10-17T04:30:13.017Z,0
2017-10-17T04:31:13.633Z,0
2017-10-17T04:32:14.275Z,0
2017-10-17T04:33:14.887Z,0
2017-10-17T04:34:15.498Z,0
2017-10-17T04:35:16.110Z,0
2017-10-17T04:36:16.721Z,0
2017-10-17T04:37:17.334Z,0
2017-10-17T04:38:17.954Z,0
2017-10-17T04:39:18.561Z,0
2017-10-17T04:40:19.173Z,0
2017-10-17T04:41:19.785Z,0
2017-10-17T04:42:20.401Z,0
2017-10-17T04:43:21.016Z,0
2017-10-17T04:44:21.626Z,0
2017-10-17T04:45:22.245Z,0
2017-10-17T04:46:22.854Z,0
2017-10-17T04:47:23.464Z,0
2017-10-17T04:48:24.076Z,0
2017-10-17T04:49:24.737Z,0
2017-10-17T04:50:25.349Z,0
2017-10-17T04:51:25.960Z,0
2017-10-17T04:52:26.573Z,0
2017-10-17T04:53:27.186Z,0
2017-10-17T04:54:27.799Z,0
2017-10-17T04:55:28.410Z,0
2017-10-17T04:56:29.020Z,0
2017-10-17T04:57:29.632Z,0
2017-10-17T04:58:30.245Z,0
2017-10-17T04:59:30.857Z,0
2017-10-17T05:00:31.472Z,0
2017-10-17T05:01:32.086Z,0
2017-10-17T05:02:32.695Z,0
2017-10-17T05:03:33.310Z,0
2017-10-17T05:04:33.954Z,0
2017-10-17T05:05:34.567Z,0
2017-10-17T05:06:35.178Z,0
2017-10-17T05:07:35.790Z,0
2017-10-17T05:08:36.409Z,0
2017-10-17T05:09:37.016Z,0
2017-10-17T05:10:37.634Z,0
2017-10-17T05:11:38.273Z,0
2017-10-17T05:12:38.886Z,0
2017-10-17T05:13:39.496Z,0
2017-10-17T05:14:40.143Z,0
2017-10-17T05:15:40.757Z,0
2017-10-17T05:16:41.374Z,0
2017-10-17T05:17:41.977Z,0
2017-10-17T05:18:42.595Z,0
2017-10-17T05:19:43.239Z,0
2017-10-17T05:20:43.852Z,0
2017-10-17T05:21:44.462Z,0
2017-10-17T05:22:45.073Z,0
2017-10-17T05:23:45.686Z,0
2017-10-17T05:24:46.354Z,0
2017-10-17T05:25:46.962Z,0
2017-10-17T05:26:47.575Z,0
2017-10-17T05:27:48.222Z,0
2017-10-17T05:28:48.833Z,0
2017-10-17T05:29:49.496Z,0
2017-10-17T05:30:50.117Z,0
2017-10-17T05:31:50.759Z,0
2017-10-17T05:32:51.366Z,0
2017-10-17T05:33:51.977Z,0
2017-10-17T05:34:52.588Z,0
2017-10-17T05:35:53.200Z,0
2017-10-17T05:36:53.811Z,0
2017-10-17T05:37:54.425Z,0
2017-10-17T05:38:55.037Z,4
2017-10-17T05:39:55.699Z,0
2017-10-17T05:40:56.312Z,4
2017-10-17T05:41:56.929Z,0
2017-10-17T05:42:57.544Z,4
2017-10-17T05:43:58.154Z,4
2017-10-17T05:44:58.816Z,0
2017-10-17T05:45:59.432Z,4
2017-10-17T05:47:00.046Z,4
2017-10-17T05:48:00.685Z,4
2017-10-17T05:49:01.297Z,4
2017-10-17T05:50:01.915Z,4
2017-10-17T05:51:02.523Z,8
2017-10-17T05:52:03.135Z,4
2017-10-17T05:53:03.746Z,4
2017-10-17T05:54:04.358Z,8
2017-10-17T05:55:04.973Z,8
2017-10-17T05:56:05.583Z,8
2017-10-17T05:57:06.195Z,12
2017-10-17T05:58:06.813Z,12
2017-10-17T05:59:07.421Z,12
2017-10-17T06:00:08.085Z,12
2017-10-17T06:01:08.697Z,8
2017-10-17T06:02:09.317Z,12
2017-10-17T06:03:09.931Z,12
2017-10-17T06:04:10.548Z,12
2017-10-17T06:05:11.157Z,16
2017-10-17T06:06:11.770Z,16
2017-10-17T06:07:12.384Z,16
2017-10-17T06:08:13.001Z,16
2017-10-17T06:09:13.614Z,20
2017-10-17T06:10:14.226Z,20
2017-10-17T06:11:14.868Z,16
2017-10-17T06:12:15.485Z,20
2017-10-17T06:13:16.096Z,20
2017-10-17T06:14:16.714Z,20
2017-10-17T06:15:17.377Z,20
2017-10-17T06:16:17.992Z,24
2017-10-17T06:17:18.611Z,20
2017-10-17T06:18:19.220Z,20
2017-10-17T06:19:19.832Z,20
2017-10-17T06:20:20.530Z,24
2017-10-17T06:21:21.143Z,24
2017-10-17T06:22:21.753Z,24
2017-10-17T06:23:22.372Z,28
2017-10-17T06:24:22.983Z,28
2017-10-17T06:25:23.675Z,24
2017-10-17T06:26:24.290Z,24
2017-10-17T06:27:24.901Z,28
2017-10-17T06:28:25.513Z,28
2017-10-17T06:29:26.125Z,28
2017-10-17T06:30:26.788Z,28
2017-10-17T06:31:27.400Z,32
2017-10-17T06:32:28.013Z,28
2017-10-17T06:33:28.632Z,28
2017-10-17T06:34:29.241Z,32
2017-10-17T06:35:29.858Z,32
2017-10-17T06:36:30.474Z,32
2017-10-17T06:37:31.090Z,32
2017-10-17T06:38:31.704Z,32
2017-10-17T06:39:32.316Z,32
2017-10-17T06:40:32.929Z,32
2017-10-17T06:41:33.539Z,36
2017-10-17T06:42:34.182Z,32
2017-10-17T06:43:34.801Z,32
2017-10-17T06:44:35.417Z,36
2017-10-17T06:45:36.033Z,36
2017-10-17T06:46:36.641Z,36
2017-10-17T06:47:37.260Z,36
2017-10-17T06:48:37.870Z,36
2017-10-17T06:49:38.488Z,36
2017-10-17T06:50:39.103Z,36
2017-10-17T06:51:39.713Z,40
2017-10-17T06:52:40.327Z,36
2017-10-17T06:53:40.941Z,40
2017-10-17T06:54:41.560Z,36
2017-10-17T06:55:42.169Z,40
2017-10-17T06:56:42.781Z,36
2017-10-17T06:57:43.401Z,40
2017-10-17T06:58:44.013Z,36
2017-10-17T06:59:44.625Z,40
2017-10-17T07:00:45.238Z,40
2017-10-17T07:01:45.855Z,40
2017-10-17T07:02:46.464Z,40
2017-10-17T07:03:47.077Z,40
2017-10-17T07:04:47.726Z,40
2017-10-17T07:05:48.341Z,40
2017-10-17T07:06:48.953Z,40
2017-10-17T07:07:49.568Z,44
2017-10-17T07:08:50.186Z,40
2017-10-17T07:09:50.799Z,44
2017-10-17T07:10:51.442Z,40
2017-10-17T07:11:52.052Z,44
2017-10-17T07:12:52.671Z,44
2017-10-17T07:13:53.281Z,44
2017-10-17T07:14:53.893Z,44
2017-10-17T07:15:54.557Z,44
2017-10-17T07:16:55.175Z,44
2017-10-17T07:17:55.783Z,44
2017-10-17T07:18:56.425Z,44
2017-10-17T07:19:57.037Z,44
2017-10-17T07:20:57.718Z,44
2017-10-17T07:21:58.314Z,48
2017-10-17T07:22:58.928Z,44
2017-10-17T07:23:59.542Z,48
2017-10-17T07:25:00.154Z,44
2017-10-17T07:26:00.817Z,48
2017-10-17T07:27:01.431Z,48
2017-10-17T07:28:02.043Z,44
2017-10-17T07:29:02.659Z,44
2017-10-17T07:30:03.273Z,48
2017-10-17T07:31:03.936Z,52
2017-10-17T07:32:04.548Z,64
2017-10-17T07:33:05.164Z,88
2017-10-17T07:34:05.773Z,104
2017-10-17T07:35:06.424Z,112
2017-10-17T07:36:07.088Z,112
2017-10-17T07:37:07.707Z,112
2017-10-17T07:38:08.324Z,116
2017-10-17T07:39:08.937Z,116
2017-10-17T07:40:09.552Z,120
2017-10-17T07:41:10.173Z,120
2017-10-17T07:42:10.791Z,124
2017-10-17T07:43:11.400Z,124
2017-10-17T07:44:12.016Z,124
2017-10-17T07:45:12.633Z,128
2017-10-17T07:46:13.305Z,128
2017-10-17T07:47:13.918Z,132
2017-10-17T07:48:14.532Z,136
2017-10-17T07:49:15.147Z,136
2017-10-17T07:50:15.765Z,132
2017-10-17T07:51:16.432Z,136
2017-10-17T07:52:17.052Z,140
2017-10-17T07:53:17.669Z,144
2017-10-17T07:54:18.285Z,140
2017-10-17T07:55:18.930Z,144
2017-10-17T07:56:19.596Z,144
2017-10-17T07:57:20.217Z,148
2017-10-17T07:58:20.829Z,152
2017-10-17T07:59:21.444Z,152
2017-10-17T08:00:22.067Z,152
2017-10-17T08:01:22.684Z,156
2017-10-17T08:02:23.302Z,156
2017-10-17T08:03:23.921Z,160
2017-10-17T08:04:24.535Z,160
2017-10-17T08:05:25.155Z,160
2017-10-17T08:06:25.768Z,160
2017-10-17T08:07:26.382Z,164
2017-10-17T08:08:27.003Z,168
2017-10-17T08:09:27.624Z,168
2017-10-17T08:10:28.236Z,172
2017-10-17T08:11:28.902Z,176
2017-10-17T08:12:29.519Z,176
2017-10-17T08:13:30.139Z,176
2017-10-17T08:14:30.753Z,180
2017-10-17T08:15:31.369Z,180
2017-10-17T08:16:31.991Z,184
2017-10-17T08:17:32.609Z,188
2017-10-17T08:18:33.229Z,188
2017-10-17T08:19:33.847Z,192
2017-10-17T08:20:34.460Z,192
2017-10-17T08:21:35.080Z,196
2017-10-17T08:22:35.700Z,200
2017-10-17T08:23:36.314Z,200
2017-10-17T08:24:36.930Z,204
2017-10-17T08:25:37.547Z,204
2017-10-17T08:26:38.162Z,208
2017-10-17T08:27:38.778Z,212
2017-10-17T08:28:39.396Z,212
2017-10-17T08:29:40.014Z,216
2017-10-17T08:30:40.629Z,216
2017-10-17T08:31:41.245Z,220
2017-10-17T08:32:41.862Z,224
2017-10-17T08:33:42.476Z,228
2017-10-17T08:34:43.093Z,228
2017-10-17T08:35:43.741Z,228
2017-10-17T08:36:44.417Z,236
2017-10-17T08:37:45.027Z,236
2017-10-17T08:38:45.643Z,236
2017-10-17T08:39:46.258Z,240
2017-10-17T08:40:46.883Z,240
2017-10-17T08:41:47.548Z,244
2017-10-17T08:42:48.163Z,248
2017-10-17T08:43:48.779Z,252
2017-10-17T08:44:49.402Z,256
2017-10-17T08:45:50.018Z,260
2017-10-17T08:46:50.684Z,260
2017-10-17T08:47:51.299Z,268
2017-10-17T08:48:51.924Z,268
2017-10-17T08:49:52.536Z,276
2017-10-17T08:50:53.155Z,276
2017-10-17T08:51:53.856Z,280
2017-10-17T08:52:54.472Z,288
2017-10-17T08:53:55.118Z,292
2017-10-17T08:54:55.734Z,296
2017-10-17T08:55:56.351Z,304
2017-10-17T08:56:56.969Z,308
2017-10-17T08:57:57.586Z,312
2017-10-17T08:58:58.204Z,316
2017-10-17T08:59:58.823Z,324
2017-10-17T09:00:59.437Z,332
2017-10-17T09:02:00.107Z,340
2017-10-17T09:03:00.729Z,344
2017-10-17T09:04:01.344Z,352
2017-10-17T09:05:01.990Z,364
2017-10-17T09:06:02.612Z,376
2017-10-17T09:07:03.234Z,388
2017-10-17T09:08:03.879Z,400
2017-10-17T09:09:04.500Z,408
2017-10-17T09:10:05.115Z,424
2017-10-17T09:11:05.731Z,436
2017-10-17T09:12:06.361Z,448
2017-10-17T09:13:06.971Z,464
2017-10-17T09:14:07.589Z,476
2017-10-17T09:15:08.207Z,488
2017-10-17T09:16:08.825Z,500
2017-10-17T09:17:09.446Z,512
2017-10-17T09:18:10.060Z,524
2017-10-17T09:19:10.677Z,536
2017-10-17T09:20:11.294Z,544
2017-10-17T09:21:11.914Z,556
2017-10-17T09:22:12.531Z,564
2017-10-17T09:23:13.151Z,576
2017-10-17T09:24:13.802Z,584
2017-10-17T09:25:14.416Z,592
2017-10-17T09:26:15.033Z,600
2017-10-17T09:27:15.702Z,608
2017-10-17T09:28:16.320Z,620
2017-10-17T09:29:16.938Z,628
2017-10-17T09:30:17.556Z,636
2017-10-17T09:31:18.180Z,644
2017-10-17T09:32:18.846Z,656
2017-10-17T09:33:19.462Z,664
2017-10-17T09:34:20.087Z,680
2017-10-17T09:35:20.702Z,684
2017-10-17T09:36:21.355Z,696
2017-10-17T09:37:22.029Z,708
2017-10-17T09:38:22.675Z,716
2017-10-17T09:39:23.296Z,724
2017-10-17T09:40:23.914Z,736
2017-10-17T09:41:24.533Z,744
2017-10-17T09:42:25.153Z,752
2017-10-17T09:43:25.776Z,760
2017-10-17T09:44:26.394Z,772
2017-10-17T09:45:27.011Z,780
2017-10-17T09:46:27.631Z,788
2017-10-17T09:47:28.300Z,796
2017-10-17T09:48:28.920Z,804
2017-10-17T09:49:29.540Z,812
2017-10-17T09:50:30.189Z,820
2017-10-17T09:51:30.818Z,832
2017-10-17T09:52:31.483Z,836
2017-10-17T09:53:32.104Z,844
2017-10-17T09:54:32.722Z,852
2017-10-17T09:55:33.342Z,860
2017-10-17T09:56:33.965Z,868
2017-10-17T09:57:34.581Z,880
2017-10-17T09:58:35.201Z,884
2017-10-17T09:59:35.820Z,888
2017-10-17T10:00:36.442Z,896
2017-10-17T10:01:37.096Z,908
2017-10-17T10:02:37.802Z,916
2017-10-17T10:03:38.420Z,920
2017-10-17T10:04:39.038Z,928
2017-10-17T10:05:39.664Z,932
2017-10-17T10:06:40.286Z,940
2017-10-17T10:07:40.903Z,948
2017-10-17T10:08:41.526Z,956
2017-10-17T10:09:42.173Z,960
2017-10-17T10:10:42.790Z,964
2017-10-17T10:11:43.409Z,972
2017-10-17T10:12:44.079Z,976
2017-10-17T10:13:44.700Z,984
2017-10-17T10:14:45.318Z,992
2017-10-17T10:15:45.940Z,996
2017-10-17T10:16:46.559Z,1000
2017-10-17T10:17:47.229Z,1004
2017-10-17T10:18:47.854Z,1012
2017-10-17T10:19:48.474Z,1016
2017-10-17T10:20:49.094Z,1020
2017-10-17T10:21:49.719Z,1024
2017-10-17T10:22:50.390Z,1028
2017-10-17T10:23:51.017Z,1032
2017-10-17T10:24:51.635Z,1036
2017-10-17T10:25:52.292Z,1040
2017-10-17T10:26:52.944Z,1044
2017-10-17T10:27:53.622Z,1048
2017-10-17T10:28:54.246Z,1056
2017-10-17T10:29:54.865Z,1056
2017-10-17T10:30:55.488Z,1060
2017-10-17T10:31:56.111Z,1064
2017-10-17T10:32:56.739Z,1068
2017-10-17T10:33:57.357Z,1068
2017-10-17T10:34:57.984Z,1072
2017-10-17T10:35:58.610Z,1076
2017-10-17T10:36:59.230Z,1080
2017-10-17T10:37:59.851Z,1080
2017-10-17T10:39:00.470Z,1084
2017-10-17T10:40:01.092Z,1088
2017-10-17T10:41:01.719Z,1092
2017-10-17T10:42:02.377Z,1096
2017-10-17T10:43:02.997Z,1096
2017-10-17T10:44:03.617Z,1100
2017-10-17T10:45:04.238Z,1104
2017-10-17T10:46:04.861Z,1108
2017-10-17T10:47:05.483Z,1108
2017-10-17T10:48:06.155Z,1108
2017-10-17T10:49:06.776Z,1112
2017-10-17T10:50:07.399Z,1116
2017-10-17T10:51:08.019Z,1120
2017-10-17T10:52:08.643Z,1120
2017-10-17T10:53:09.269Z,1124
2017-10-17T10:54:09.888Z,1128
2017-10-17T10:55:10.512Z,1128
2017-10-17T10:56:11.132Z,1132
2017-10-17T10:57:11.755Z,1132
2017-10-17T10:58:12.377Z,1136
2017-10-17T10:59:12.999Z,1140
2017-10-17T11:00:13.621Z,1144
2017-10-17T11:01:14.242Z,1148
2017-10-17T11:02:14.877Z,1144
2017-10-17T11:03:15.539Z,1152
2017-10-17T11:04:16.161Z,1152
2017-10-17T11:05:16.789Z,1152
2017-10-17T11:06:17.440Z,1156
2017-10-17T11:07:18.063Z,1160
2017-10-17T11:08:18.685Z,1140
2017-10-17T11:09:19.306Z,1120
2017-10-17T11:10:19.936Z,1108
2017-10-17T11:11:20.558Z,1164
2017-10-17T11:12:21.186Z,1168
2017-10-17T11:13:21.856Z,1168
2017-10-17T11:14:22.479Z,1168
2017-10-17T11:15:23.104Z,1172
2017-10-17T11:16:23.725Z,1172
2017-10-17T11:17:24.353Z,1176
2017-10-17T11:18:25.022Z,1172
2017-10-17T11:19:25.646Z,1176
2017-10-17T11:20:26.267Z,1092
2017-10-17T11:21:26.906Z,1128
2017-10-17T11:22:27.520Z,1176
2017-10-17T11:23:28.146Z,1176
2017-10-17T11:24:28.765Z,1176
2017-10-17T11:25:29.394Z,1184
2017-10-17T11:26:30.014Z,1176
2017-10-17T11:27:30.643Z,1156
2017-10-17T11:28:31.311Z,1176
2017-10-17T11:29:31.940Z,1172
2017-10-17T11:30:32.565Z,1180
2017-10-17T11:31:33.185Z,1184
2017-10-17T11:32:33.808Z,1188
2017-10-17T11:33:34.480Z,1188
2017-10-17T11:34:35.102Z,1192
2017-10-17T11:35:35.724Z,1192
2017-10-17T11:36:36.346Z,1152
2017-10-17T11:37:36.969Z,1172
2017-10-17T11:38:37.643Z,1176
2017-10-17T11:39:38.267Z,1188
2017-10-17T11:40:38.923Z,1192
2017-10-17T11:41:39.543Z,1192
2017-10-17T11:42:40.165Z,1192
2017-10-17T11:43:40.791Z,1196
2017-10-17T11:44:41.419Z,1180
2017-10-17T11:45:42.040Z,1172
2017-10-17T11:46:42.661Z,1172
2017-10-17T11:47:43.319Z,1192
2017-10-17T11:48:43.939Z,1168
2017-10-17T11:49:44.561Z,1180
2017-10-17T11:50:45.185Z,1144
2017-10-17T11:51:45.814Z,1064
2017-10-17T11:52:46.433Z,1140
2017-10-17T11:53:47.087Z,1172
2017-10-17T11:54:47.709Z,1080
2017-10-17T11:55:48.334Z,1156
2017-10-17T11:56:48.963Z,1172
2017-10-17T11:57:49.591Z,1208
2017-10-17T11:58:50.250Z,1208
2017-10-17T11:59:50.870Z,1208
2017-10-17T12:00:51.524Z,1212
2017-10-17T12:01:52.150Z,1172
2017-10-17T12:02:52.811Z,1056
2017-10-17T12:03:53.433Z,1212
2017-10-17T12:04:54.059Z,1220
2017-10-17T12:05:54.711Z,1220
2017-10-17T12:06:55.370Z,1208
2017-10-17T12:07:55.991Z,1204
2017-10-17T12:08:56.666Z,1192
2017-10-17T12:09:57.290Z,1216
2017-10-17T12:10:57.915Z,1220
2017-10-17T12:11:58.569Z,1216
2017-10-17T12:12:59.193Z,1220
2017-10-17T12:13:59.817Z,1220
2017-10-17T12:15:00.445Z,1220
2017-10-17T12:16:01.066Z,1220
2017-10-17T12:17:01.692Z,1204
2017-10-17T12:18:02.321Z,1216
2017-10-17T12:19:02.949Z,1216
2017-10-17T12:20:03.575Z,1228
2017-10-17T12:21:04.199Z,1228
2017-10-17T12:22:04.823Z,1232
2017-10-17T12:23:05.450Z,1232
2017-10-17T12:24:06.079Z,1236
2017-10-17T12:25:06.708Z,1232
2017-10-17T12:26:07.328Z,1236
2017-10-17T12:27:07.953Z,1228
2017-10-17T12:28:08.578Z,1220
2017-10-17T12:29:09.202Z,1208
2017-10-17T12:30:09.826Z,1236
2017-10-17T12:31:10.452Z,1176
2017-10-17T12:32:11.110Z,1220
2017-10-17T12:33:11.737Z,1260
2017-10-17T12:34:12.359Z,1264
2017-10-17T12:35:13.013Z,1260
2017-10-17T12:36:13.638Z,1260
2017-10-17T12:37:14.268Z,1264
2017-10-17T12:38:14.890Z,1264
2017-10-17T12:39:15.515Z,1264
2017-10-17T12:40:16.139Z,1264
2017-10-17T12:41:16.768Z,1268
2017-10-17T12:42:17.389Z,1268
2017-10-17T12:43:18.016Z,1268
2017-10-17T12:44:18.667Z,1268
2017-10-17T12:45:19.291Z,1276
2017-10-17T12:46:19.917Z,1276
2017-10-17T12:47:20.541Z,1276
2017-10-17T12:48:21.167Z,1272
2017-10-17T12:49:21.873Z,1276
2017-10-17T12:50:22.499Z,1244
2017-10-17T12:51:23.124Z,1272
2017-10-17T12:52:23.748Z,1280
2017-10-17T12:53:24.379Z,1280
2017-10-17T12:54:25.051Z,1280
2017-10-17T12:55:25.704Z,1284
2017-10-17T12:56:26.330Z,1284
2017-10-17T12:57:26.954Z,1288
2017-10-17T12:58:27.611Z,1284
2017-10-17T12:59:28.286Z,1280
2017-10-17T13:00:28.909Z,1288
2017-10-17T13:01:29.535Z,1288
2017-10-17T13:02:30.159Z,1288
2017-10-17T13:03:30.783Z,1292
2017-10-17T13:04:31.408Z,1296
2017-10-17T13:05:32.038Z,1300
2017-10-17T13:06:32.668Z,1296
2017-10-17T13:07:33.292Z,1296
2017-10-17T13:08:33.918Z,1300
2017-10-17T13:09:34.629Z,1300
2017-10-17T13:10:35.256Z,1300
2017-10-17T13:11:35.911Z,1304
2017-10-17T13:12:36.535Z,1304
2017-10-17T13:13:37.160Z,1308
2017-10-17T13:14:37.790Z,1308
2017-10-17T13:15:38.413Z,1312
2017-10-17T13:16:39.038Z,1312
2017-10-17T13:17:39.697Z,1312
2017-10-17T13:18:40.320Z,1320
2017-10-17T13:19:40.944Z,1320
2017-10-17T13:20:41.575Z,1140
2017-10-17T13:21:42.200Z,1224
2017-10-17T13:22:42.823Z,1284
2017-10-17T13:23:43.451Z,1260
2017-10-17T13:24:44.123Z,1340
2017-10-17T13:25:44.756Z,1348
2017-10-17T13:26:45.378Z,1304
2017-10-17T13:27:46.012Z,1288
2017-10-17T13:28:46.659Z,1260
2017-10-17T13:29:47.334Z,1284
2017-10-17T13:30:47.959Z,1300
2017-10-17T13:31:48.584Z,1196
2017-10-17T13:32:49.253Z,1352
2017-10-17T13:33:49.901Z,1280
2017-10-17T13:34:50.576Z,1344
2017-10-17T13:35:51.206Z,1360
2017-10-17T13:36:51.832Z,1356
2017-10-17T13:37:52.456Z,1336
2017-10-17T13:38:53.081Z,1072
2017-10-17T13:39:53.756Z,1012
2017-10-17T13:40:54.379Z,1160
2017-10-17T13:41:55.010Z,1164
2017-10-17T13:42:55.633Z,1172
2017-10-17T13:43:56.257Z,1176
2017-10-17T13:44:56.933Z,1304
2017-10-17T13:45:57.559Z,1196
2017-10-17T13:46:58.189Z,1180
2017-10-17T13:47:58.815Z,1204
2017-10-17T13:48:59.445Z,964
2017-10-17T13:50:00.062Z,1048
2017-10-17T13:51:00.687Z,1192
2017-10-17T13:52:01.312Z,1184
2017-10-17T13:53:01.939Z,1268
2017-10-17T13:54:02.565Z,1168
2017-10-17T13:55:03.240Z,1000
2017-10-17T13:56:03.861Z,760
2017-10-17T13:57:04.488Z,628
2017-10-17T13:58:05.109Z,712
2017-10-17T13:59:05.731Z,740
2017-10-17T14:00:06.405Z,660
2017-10-17T14:01:07.033Z,788
2017-10-17T14:02:07.654Z,1088
2017-10-17T14:03:08.279Z,1340
2017-10-17T14:04:08.908Z,1164
2017-10-17T14:05:09.578Z,1260
2017-10-17T14:06:10.205Z,1160
2017-10-17T14:07:10.836Z,1184
2017-10-17T14:08:11.456Z,1128
2017-10-17T14:09:12.080Z,1292
2017-10-17T14:10:12.753Z,1228
2017-10-17T14:11:13.378Z,1204
2017-10-17T14:12:14.003Z,1208
2017-10-17T14:13:14.632Z,1248
2017-10-17T14:14:15.256Z,1084